Time;durP1;ratioP1;P1;durP2;ratioP2;P2;SDS_P1;SDS_P2;PMS_P1;PMS_P2;Temp;Humidity;BMP_temperature;BMP_pressure;BME280_temperature;BME280_humidity;BME280_pressure;Samples;Min_cycle;Max_cycle;Signal;HPM_P1;HPM_P2
2023/10/13 00:01:34;;;;;;;20.80;9.63;;;15.20;99.90;;;;;;5049286;28;20389;-72
2023/10/13 00:04:05;;;;;;;22.27;9.93;;;15.10;99.90;;;;;;5049008;28;20037;-73
2023/10/13 00:06:31;;;;;;;21.13;9.98;;;15.10;99.90;;;;;;5049812;28;20036;-74
2023/10/13 00:08:56;;;;;;;18.27;9.90;;;14.90;99.90;;;;;;5049561;28;20029;-73
2023/10/13 00:11:22;;;;;;;21.73;10.02;;;14.90;99.90;;;;;;5050094;28;20397;-73
2023/10/13 00:13:50;;;;;;;23.48;10.38;;;14.80;99.90;;;;;;5050023;28;20025;-73
2023/10/13 00:16:27;;;;;;;21.27;10.07;;;14.80;99.90;;;;;;5048700;28;20040;-72
2023/10/13 00:18:57;;;;;;;24.77;9.90;;;14.70;99.90;;;;;;5049813;28;20033;-74
2023/10/13 00:21:32;;;;;;;20.67;9.30;;;14.70;99.90;;;;;;5049079;28;20040;-72
2023/10/13 00:24:05;;;;;;;19.95;9.43;;;14.60;99.90;;;;;;5049319;28;20032;-74
2023/10/13 00:26:35;;;;;;;18.90;10.05;;;14.50;99.90;;;;;;5049904;28;20060;-72
2023/10/13 00:29:09;;;;;;;25.73;10.50;;;14.50;99.90;;;;;;5049121;28;20032;-73
2023/10/13 00:31:42;;;;;;;23.08;10.82;;;14.50;99.90;;;;;;5049366;28;20033;-72
2023/10/13 00:37:10;;;;;;;18.42;9.52;;;14.50;99.90;;;;;;5049725;28;20037;-73
2023/10/13 00:39:45;;;;;;;18.25;9.27;;;14.50;99.90;;;;;;5044026;28;20072;-73
2023/10/13 00:42:25;;;;;;;18.67;9.55;;;14.40;99.90;;;;;;5046327;28;20456;-73
2023/10/13 00:44:54;;;;;;;22.20;9.52;;;14.40;99.90;;;;;;5047305;28;20068;-73
2023/10/13 00:50:03;;;;;;;24.67;10.70;;;14.30;99.90;;;;;;5048540;28;20037;-73
2023/10/13 00:52:30;;;;;;;24.38;10.63;;;14.30;99.90;;;;;;5032845;28;20090;-73
2023/10/13 00:54:59;;;;;;;19.88;9.50;;;14.30;99.90;;;;;;5048760;28;20121;-74
2023/10/13 00:57:32;;;;;;;20.35;9.43;;;14.20;99.90;;;;;;5048547;28;20033;-72
2023/10/13 00:59:59;;;;;;;17.45;9.68;;;14.20;99.90;;;;;;5049145;28;20041;-72
2023/10/13 01:02:40;;;;;;;18.08;9.65;;;14.10;99.90;;;;;;5029377;28;20025;-73
2023/10/13 01:05:10;;;;;;;19.75;10.07;;;14.00;99.90;;;;;;5047328;28;20048;-73
2023/10/13 01:07:37;;;;;;;21.13;10.20;;;13.90;99.90;;;;;;5048342;28;20029;-72
2023/10/13 01:10:04;;;;;;;24.85;10.18;;;13.90;99.90;;;;;;5047674;28;20279;-74
2023/10/13 01:12:30;;;;;;;22.05;10.05;;;13.80;99.90;;;;;;5048838;28;20108;-73
2023/10/13 01:14:57;;;;;;;24.55;10.13;;;13.80;99.90;;;;;;5048927;28;20044;-73
2023/10/13 01:17:23;;;;;;;19.02;9.75;;;13.80;99.90;;;;;;5047584;28;20124;-73
2023/10/13 01:19:49;;;;;;;22.02;9.48;;;13.80;99.90;;;;;;5048589;28;20465;-72
2023/10/13 01:22:15;;;;;;;21.95;10.30;;;13.90;99.90;;;;;;5048367;28;20037;-73
2023/10/13 01:24:41;;;;;;;21.98;9.93;;;13.90;99.90;;;;;;5048146;28;20102;-74
2023/10/13 01:27:29;;;;;;;24.40;9.55;;;13.90;99.90;;;;;;5047454;28;20049;-72
2023/10/13 01:29:59;;;;;;;21.08;9.60;;;13.80;99.90;;;;;;5047919;28;20045;-73
2023/10/13 01:32:25;;;;;;;19.70;9.85;;;13.70;99.90;;;;;;5047198;28;20029;-72
2023/10/13 01:34:55;;;;;;;21.38;10.27;;;13.60;99.90;;;;;;5047245;28;20690;-74
2023/10/13 01:37:21;;;;;;;24.35;10.10;;;13.50;99.90;;;;;;5041468;28;20622;-74
2023/10/13 01:39:49;;;;;;;20.25;9.18;;;13.50;99.90;;;;;;5048429;28;20143;-72
2023/10/13 01:42:19;;;;;;;23.83;10.65;;;13.40;99.90;;;;;;5047576;28;20029;-72
2023/10/13 01:44:45;;;;;;;22.77;9.77;;;13.40;99.90;;;;;;5048419;28;20041;-74
2023/10/13 01:47:12;;;;;;;19.33;9.10;;;13.30;99.90;;;;;;5047340;28;20043;-73
2023/10/13 01:49:58;;;;;;;21.60;9.27;;;13.30;99.90;;;;;;5047606;28;20048;-72
2023/10/13 01:52:25;;;;;;;19.08;10.18;;;13.30;99.90;;;;;;5047379;28;20033;-72
2023/10/13 01:54:50;;;;;;;23.00;9.45;;;13.30;99.90;;;;;;5048558;28;20036;-72
2023/10/13 01:57:17;;;;;;;20.02;9.35;;;13.40;99.90;;;;;;5047689;28;20036;-72
2023/10/13 01:59:47;;;;;;;21.17;9.77;;;13.40;99.90;;;;;;5048123;28;20060;-72
2023/10/13 02:02:13;;;;;;;24.80;10.00;;;13.30;99.90;;;;;;5047792;28;20444;-72
2023/10/13 02:04:48;;;;;;;20.77;9.68;;;13.20;99.90;;;;;;5047376;28;20140;-71
2023/10/13 02:07:17;;;;;;;21.33;9.23;;;13.20;99.90;;;;;;5038014;28;20040;-73
2023/10/13 02:09:43;;;;;;;19.13;9.10;;;13.20;99.90;;;;;;5047637;28;20367;-73
2023/10/13 02:12:09;;;;;;;18.42;9.63;;;13.10;99.90;;;;;;5047290;28;20116;-74
2023/10/13 02:14:38;;;;;;;18.33;8.85;;;13.10;99.90;;;;;;5048165;28;20118;-72
2023/10/13 02:17:23;;;;;;;17.65;9.23;;;13.10;99.90;;;;;;5047904;28;20033;-73
2023/10/13 02:19:54;;;;;;;19.98;9.77;;;13.00;99.90;;;;;;5048329;28;20183;-73
2023/10/13 02:22:28;;;;;;;24.73;10.15;;;13.00;99.90;;;;;;5047609;28;20044;-74
2023/10/13 02:25:01;;;;;;;18.27;9.63;;;12.90;99.90;;;;;;5047790;28;20025;-73
2023/10/13 02:27:27;;;;;;;22.20;10.50;;;12.80;99.90;;;;;;5046264;28;20071;-73
2023/10/13 02:29:58;;;;;;;22.70;9.13;;;12.70;99.90;;;;;;5048152;28;20079;-72
2023/10/13 02:32:24;;;;;;;21.10;9.52;;;12.70;99.90;;;;;;5045543;28;20697;-74
2023/10/13 02:34:50;;;;;;;18.65;8.55;;;12.70;99.90;;;;;;5043075;28;20390;-73
2023/10/13 02:37:18;;;;;;;20.95;9.85;;;12.70;99.90;;;;;;5027537;28;20037;-72
2023/10/13 02:39:44;;;;;;;22.98;9.80;;;12.70;99.90;;;;;;5028243;28;20120;-73
2023/10/13 02:42:23;;;;;;;17.08;9.15;;;12.70;99.90;;;;;;5028686;28;20117;-72
2023/10/13 02:44:55;;;;;;;19.00;9.43;;;12.70;99.90;;;;;;5048845;28;20056;-73
2023/10/13 02:47:23;;;;;;;17.60;9.32;;;12.70;99.90;;;;;;5050058;28;20041;-73
2023/10/13 02:49:49;;;;;;;17.35;9.02;;;12.70;99.90;;;;;;5044089;28;20094;-72
2023/10/13 02:52:15;;;;;;;23.75;9.95;;;12.70;99.90;;;;;;5050245;28;20036;-74
2023/10/13 02:54:50;;;;;;;20.27;9.18;;;12.60;99.90;;;;;;5051463;28;20385;-73
2023/10/13 02:57:16;;;;;;;18.17;9.23;;;12.60;99.90;;;;;;5050905;28;20121;-73
2023/10/13 02:59:50;;;;;;;17.05;9.05;;;12.50;99.90;;;;;;5051619;28;20119;-73
2023/10/13 03:02:27;;;;;;;21.10;8.82;;;12.50;99.90;;;;;;5050447;28;20058;-72
2023/10/13 03:05:08;;;;;;;19.73;9.00;;;12.30;99.90;;;;;;5051055;28;20559;-72
2023/10/13 03:07:36;;;;;;;27.45;9.23;;;12.30;99.90;;;;;;5049194;28;20033;-72
2023/10/13 03:10:09;;;;;;;19.70;9.20;;;12.20;99.90;;;;;;5051556;28;20083;-73
2023/10/13 03:12:36;;;;;;;19.40;9.43;;;12.20;99.90;;;;;;5051204;28;20035;-74
2023/10/13 03:15:18;;;;;;;19.65;9.77;;;12.20;99.90;;;;;;5051488;28;20459;-74
2023/10/13 03:17:47;;;;;;;21.98;9.80;;;12.20;99.90;;;;;;5043906;28;20090;-73
2023/10/13 03:20:24;;;;;;;20.63;9.80;;;12.20;99.90;;;;;;5050663;28;20385;-73
2023/10/13 03:22:53;;;;;;;17.42;8.98;;;12.20;99.90;;;;;;5050564;28;20098;-73
2023/10/13 03:25:37;;;;;;;16.90;9.13;;;12.20;99.90;;;;;;5050162;28;20037;-73
2023/10/13 03:28:07;;;;;;;19.33;9.50;;;12.20;99.90;;;;;;5050559;28;20095;-74
2023/10/13 03:30:38;;;;;;;20.95;8.48;;;12.20;99.90;;;;;;5050216;28;20040;-72
2023/10/13 03:33:11;;;;;;;16.88;8.90;;;12.20;99.90;;;;;;5050839;28;20044;-73
2023/10/13 03:35:43;;;;;;;21.35;9.63;;;12.10;99.90;;;;;;5050870;28;20114;-72
2023/10/13 03:38:19;;;;;;;18.50;8.90;;;12.10;99.90;;;;;;5050481;28;20120;-73
2023/10/13 03:40:49;;;;;;;27.73;9.00;;;12.10;99.90;;;;;;5050670;28;20056;-73
2023/10/13 03:43:21;;;;;;;12.00;6.50;;;12.00;99.90;;;;;;5050276;28;20036;-72
2023/10/13 03:45:52;;;;;;;18.15;9.43;;;12.00;99.90;;;;;;5050655;28;20037;-72
2023/10/13 03:48:28;;;;;;;15.23;8.70;;;11.90;99.90;;;;;;5049865;28;20382;-72
2023/10/13 03:51:08;;;;;;;17.83;8.13;;;11.90;99.90;;;;;;5049484;28;20124;-71
2023/10/13 03:53:36;;;;;;;17.33;8.60;;;11.80;99.90;;;;;;5030041;28;20108;-73
2023/10/13 03:56:14;;;;;;;15.30;8.05;;;11.70;99.90;;;;;;5029988;28;20466;-73
2023/10/13 03:58:46;;;;;;;18.50;8.50;;;11.70;99.90;;;;;;5032598;28;20029;-74
2023/10/13 04:01:15;;;;;;;15.15;8.38;;;11.70;99.90;;;;;;5049664;28;20826;-74
2023/10/13 04:04:03;;;;;;;19.35;8.75;;;11.70;99.90;;;;;;5050145;28;20029;-74
2023/10/13 04:17:15;;;;;;;19.38;8.82;;;11.50;99.90;;;;;;5049521;28;20126;-73
2023/10/13 04:39:00;;;;;;;18.48;8.85;;;11.50;99.90;;;;;;5047715;28;20041;-73
2023/10/13 04:41:36;;;;;;;17.77;8.70;;;11.50;99.90;;;;;;5043442;28;20052;-73
2023/10/13 04:44:23;;;;;;;19.20;8.50;;;11.50;99.90;;;;;;5046849;28;20040;-73
2023/10/13 04:54:44;;;;;;;14.43;7.30;;;11.20;99.90;;;;;;5028872;28;20192;-73
2023/10/13 05:51:46;;;;;;;18.73;9.10;;;10.80;99.90;;;;;;5047959;28;20504;-74
2023/10/13 06:29:58;;;;;;;18.67;8.43;;;10.90;99.90;;;;;;5051898;28;20066;-74
2023/10/13 06:32:27;;;;;;;17.48;8.23;;;10.90;99.90;;;;;;5051518;28;20040;-72
2023/10/13 06:35:05;;;;;;;21.00;9.55;;;10.90;99.90;;;;;;5051717;28;20522;-73
2023/10/13 06:37:32;;;;;;;17.88;8.93;;;11.00;99.90;;;;;;5049100;28;20086;-72
2023/10/13 06:40:05;;;;;;;19.85;8.48;;;11.10;99.90;;;;;;5052163;28;20059;-74
2023/10/13 06:42:34;;;;;;;21.25;9.07;;;11.20;99.90;;;;;;5051232;28;20691;-73
2023/10/13 06:45:03;;;;;;;16.75;8.35;;;11.30;99.90;;;;;;5051491;28;20060;-73
2023/10/13 06:47:29;;;;;;;17.95;9.10;;;11.30;99.90;;;;;;5050942;28;20033;-74
2023/10/13 06:49:56;;;;;;;18.35;9.15;;;11.40;99.90;;;;;;5051650;28;20183;-73
2023/10/13 06:52:29;;;;;;;19.98;9.50;;;11.50;99.90;;;;;;5051388;28;20489;-74
2023/10/13 06:54:55;;;;;;;20.70;8.77;;;11.60;99.90;;;;;;5047192;28;20482;-74
2023/10/13 06:57:21;;;;;;;13.93;7.88;;;11.60;99.90;;;;;;5050480;28;20473;-73
2023/10/13 06:59:48;;;;;;;16.08;8.00;;;11.60;99.90;;;;;;5049690;28;20060;-72
2023/10/13 07:02:33;;;;;;;17.55;8.25;;;11.70;99.90;;;;;;5049680;28;20384;-73
2023/10/13 07:05:07;;;;;;;15.48;7.65;;;11.80;99.90;;;;;;5050377;28;20106;-72
2023/10/13 07:07:33;;;;;;;16.20;7.65;;;11.90;99.90;;;;;;5037333;28;20068;-73
2023/10/13 07:09:58;;;;;;;15.52;7.90;;;12.00;99.90;;;;;;5049561;28;20064;-73
2023/10/13 07:12:27;;;;;;;15.13;7.55;;;12.10;99.90;;;;;;5048391;28;20068;-73
2023/10/13 07:15:44;;;;;;;18.70;8.50;;;12.20;99.90;;;;;;5051160;28;20128;-74
2023/10/13 07:17:40;;;;;;;15.55;8.63;;;12.30;99.90;;;;;;5027342;28;20799;-73
2023/10/13 07:23:02;;;;;;;13.25;7.30;;;12.40;99.90;;;;;;5049120;28;20455;-74
2023/10/13 07:25:37;;;;;;;20.33;8.50;;;12.50;99.90;;;;;;5047567;28;20064;-72
2023/10/13 07:28:08;;;;;;;20.30;8.95;;;12.70;99.90;;;;;;5045483;28;20067;-75
2023/10/13 07:33:22;;;;;;;19.02;8.13;;;12.80;99.90;;;;;;5050652;28;20381;-73
2023/10/13 07:35:58;;;;;;;16.50;8.30;;;12.90;99.90;;;;;;5049976;28;20132;-76
2023/10/13 07:38:25;;;;;;;17.00;8.30;;;13.00;99.90;;;;;;5050790;28;20032;-74
2023/10/13 07:40:51;;;;;;;17.58;8.00;;;13.20;99.90;;;;;;5050435;28;20104;-76
2023/10/13 07:43:21;;;;;;;21.17;8.32;;;13.30;99.90;;;;;;5050214;28;20125;-69
2023/10/13 07:45:50;;;;;;;14.55;7.93;;;13.50;99.90;;;;;;5048995;28;20036;-67
2023/10/13 07:48:23;;;;;;;16.92;8.70;;;13.60;99.90;;;;;;5050894;28;20462;-69
2023/10/13 07:51:27;;;;;;;15.68;8.65;;;13.80;99.90;;;;;;5048435;28;20069;-70
2023/10/13 07:53:53;;;;;;;21.27;9.30;;;14.00;99.90;;;;;;5050151;28;20037;-74
2023/10/13 07:56:19;;;;;;;19.23;8.60;;;14.10;99.90;;;;;;5048266;28;20036;-75
2023/10/13 07:59:00;;;;;;;20.80;9.20;;;14.30;99.90;;;;;;5049202;28;20043;-74
2023/10/13 08:01:26;;;;;;;26.60;9.63;;;14.40;99.90;;;;;;5049229;28;20116;-76
2023/10/13 08:04:04;;;;;;;16.05;8.73;;;14.60;99.90;;;;;;5049669;28;20113;-73
2023/10/13 08:06:30;;;;;;;24.10;9.10;;;14.80;99.90;;;;;;5044530;28;20048;-74
2023/10/13 08:09:07;;;;;;;15.50;8.38;;;15.00;99.90;;;;;;5049894;28;20033;-75
2023/10/13 08:11:39;;;;;;;19.85;8.38;;;15.20;99.90;;;;;;5046484;28;20041;-75
2023/10/13 08:14:22;;;;;;;15.00;7.60;;;15.40;99.90;;;;;;5049962;28;20033;-75
2023/10/13 08:16:54;;;;;;;18.75;8.38;;;15.60;99.90;;;;;;5048408;28;20533;-76
2023/10/13 08:19:44;;;;;;;16.27;8.93;;;15.80;99.90;;;;;;5049603;28;20032;-75
2023/10/13 08:22:23;;;;;;;17.17;7.95;;;16.10;99.90;;;;;;5042610;28;20196;-75
2023/10/13 08:27:48;;;;;;;18.27;8.65;;;16.50;99.90;;;;;;5049484;28;20098;-74
2023/10/13 08:30:36;;;;;;;23.67;8.52;;;16.80;99.90;;;;;;5049387;28;20040;-74
2023/10/13 08:33:16;;;;;;;16.50;7.97;;;17.10;99.90;;;;;;5047914;28;20041;-74
2023/10/13 08:35:54;;;;;;;19.15;7.35;;;17.40;99.90;;;;;;5033305;28;20037;-73
2023/10/13 08:38:28;;;;;;;19.90;8.10;;;17.50;99.90;;;;;;5040206;28;20068;-73
2023/10/13 08:43:45;;;;;;;15.85;7.05;;;17.80;99.90;;;;;;5048848;28;20377;-74
2023/10/13 08:46:24;;;;;;;14.60;6.93;;;18.00;99.90;;;;;;5048422;28;20734;-74
2023/10/13 08:49:03;;;;;;;17.80;5.72;;;18.20;99.90;;;;;;5048927;28;20033;-74
2023/10/13 08:51:43;;;;;;;13.35;6.10;;;18.50;99.90;;;;;;5048763;28;20087;-75
2023/10/13 08:54:33;;;;;;;13.17;6.50;;;18.80;99.90;;;;;;5049366;28;20028;-73
2023/10/13 08:57:06;;;;;;;16.00;6.82;;;19.10;99.90;;;;;;5046336;28;20028;-74
2023/10/13 08:59:52;;;;;;;16.65;5.10;;;19.50;99.90;;;;;;5048630;28;20033;-75
2023/10/13 09:02:22;;;;;;;16.58;6.65;;;19.80;99.90;;;;;;5049580;28;20427;-74
2023/10/13 09:04:59;;;;;;;18.38;5.38;;;20.30;99.90;;;;;;5048227;28;20068;-76
2023/10/13 09:07:25;;;;;;;18.13;5.63;;;20.60;99.90;;;;;;5049421;28;20037;-74
2023/10/13 09:12:20;;;;;;;11.23;5.07;;;21.10;99.90;;;;;;5049293;28;20131;-75
2023/10/13 09:15:04;;;;;;;16.45;5.32;;;21.40;99.90;;;;;;5048208;28;20170;-75
2023/10/13 09:25:38;;;;;;;14.73;4.95;;;22.50;99.90;;;;;;5048455;28;20037;-77
2023/10/13 09:28:22;;;;;;;15.65;4.15;;;22.70;99.90;;;;;;5048773;28;20028;-75
2023/10/13 09:30:56;;;;;;;11.35;4.65;;;22.90;97.90;;;;;;5047931;28;20142;-74
2023/10/13 09:33:32;;;;;;;15.18;4.38;;;23.00;97.60;;;;;;5047793;28;20587;-74
2023/10/13 09:35:59;;;;;;;18.55;4.53;;;23.30;94.60;;;;;;5048520;28;20040;-75
2023/10/13 09:38:27;;;;;;;9.50;3.88;;;23.40;94.40;;;;;;5048842;28;20033;-74
2023/10/13 09:40:57;;;;;;;26.05;4.72;;;23.70;92.90;;;;;;5047934;28;20024;-74
2023/10/13 09:43:25;;;;;;;10.57;3.55;;;23.90;93.50;;;;;;5048005;28;20478;-74
2023/10/13 09:46:15;;;;;;;10.75;3.72;;;24.00;91.70;;;;;;5048200;28;20099;-76
2023/10/13 09:48:46;;;;;;;16.00;4.38;;;24.20;85.50;;;;;;5046779;28;20041;-73
2023/10/13 09:51:21;;;;;;;16.83;4.07;;;24.20;89.60;;;;;;5047623;28;20033;-73
2023/10/13 09:54:01;;;;;;;16.55;4.00;;;24.20;86.30;;;;;;5046330;28;20027;-74
2023/10/13 09:56:32;;;;;;;16.35;4.38;;;24.20;84.90;;;;;;5048502;28;20044;-77
2023/10/13 09:59:14;;;;;;;13.57;3.35;;;24.30;84.50;;;;;;5048185;28;20033;-75
2023/10/13 10:01:50;;;;;;;14.13;3.30;;;24.30;84.10;;;;;;5047791;28;20033;-74
2023/10/13 10:04:17;;;;;;;16.55;4.13;;;24.50;80.00;;;;;;5047631;28;20402;-74
2023/10/13 10:06:56;;;;;;;12.27;3.45;;;24.60;81.00;;;;;;5045122;28;20044;-74
2023/10/13 10:09:37;;;;;;;12.32;3.45;;;24.80;75.00;;;;;;5047523;28;20477;-77
2023/10/13 10:12:30;;;;;;;12.38;3.70;;;24.90;74.60;;;;;;5047527;28;20063;-75
2023/10/13 10:15:06;;;;;;;15.30;3.88;;;25.00;77.80;;;;;;5046247;28;20079;-77
2023/10/13 10:17:42;;;;;;;13.23;3.15;;;25.10;72.20;;;;;;5046773;28;20025;-74
2023/10/13 10:20:19;;;;;;;13.35;4.10;;;25.20;73.80;;;;;;5047341;28;20044;-75
2023/10/13 10:22:59;;;;;;;13.75;3.90;;;25.30;73.00;;;;;;5045101;28;20480;-74
2023/10/13 10:25:35;;;;;;;7.25;3.28;;;25.40;69.20;;;;;;5046259;28;20444;-74
2023/10/13 10:28:06;;;;;;;10.95;3.65;;;25.40;70.60;;;;;;5046746;28;20072;-74
2023/10/13 10:30:35;;;;;;;12.20;3.67;;;25.40;72.50;;;;;;5047661;28;20029;-74
2023/10/13 10:33:15;;;;;;;13.50;3.63;;;25.50;68.80;;;;;;5046171;28;20043;-75
2023/10/13 10:35:46;;;;;;;9.20;3.83;;;25.50;72.50;;;;;;5047213;28;20044;-77
2023/10/13 10:38:32;;;;;;;11.10;3.58;;;25.50;72.80;;;;;;5047697;28;20037;-76
2023/10/13 10:41:05;;;;;;;12.05;3.50;;;25.70;68.90;;;;;;5047272;28;20107;-74
2023/10/13 10:43:43;;;;;;;9.10;3.47;;;25.80;70.10;;;;;;5046699;28;20386;-75
2023/10/13 10:46:18;;;;;;;10.68;3.45;;;26.00;65.30;;;;;;5048699;28;20057;-76
2023/10/13 10:48:44;;;;;;;9.55;3.78;;;26.00;70.10;;;;;;5046518;28;20125;-79
2023/10/13 10:51:23;;;;;;;10.30;3.55;;;26.20;65.20;;;;;;5047134;28;20115;-76
2023/10/13 10:53:52;;;;;;;12.35;3.67;;;26.10;67.60;;;;;;5046997;28;20053;-75
2023/10/13 10:56:36;;;;;;;12.00;3.72;;;26.30;68.00;;;;;;5047810;28;20083;-77
2023/10/13 10:59:04;;;;;;;10.98;4.00;;;26.50;65.80;;;;;;5046984;28;20036;-76
2023/10/13 11:01:38;;;;;;;14.60;4.15;;;26.60;69.10;;;;;;5043851;28;20037;-77
2023/10/13 11:04:08;;;;;;;17.05;3.67;;;26.60;62.90;;;;;;5047545;28;20098;-75
2023/10/13 11:06:45;;;;;;;11.98;3.50;;;26.80;65.80;;;;;;5049480;28;20493;-77
2023/10/13 11:09:31;;;;;;;14.00;3.38;;;26.90;68.40;;;;;;5048867;28;20120;-76
2023/10/13 11:12:06;;;;;;;15.45;4.60;;;27.10;67.00;;;;;;5049728;28;20216;-73
2023/10/13 11:14:32;;;;;;;12.20;4.00;;;27.30;62.70;;;;;;5046943;28;20036;-76
2023/10/13 11:17:13;;;;;;;12.35;3.83;;;27.20;61.80;;;;;;5049879;28;20033;-78
2023/10/13 11:19:40;;;;;;;11.38;3.80;;;27.10;60.60;;;;;;5046252;28;20040;-76
2023/10/13 11:22:32;;;;;;;12.32;3.95;;;27.00;62.70;;;;;;5050958;28;20067;-78
2023/10/13 11:25:11;;;;;;;11.63;3.92;;;27.10;60.90;;;;;;5050207;28;20128;-75
2023/10/13 11:30:25;;;;;;;12.40;3.28;;;27.20;61.00;;;;;;5050143;28;20071;-75
2023/10/13 11:33:00;;;;;;;14.13;4.30;;;27.30;60.90;;;;;;5050345;28;20029;-77
2023/10/13 11:35:49;;;;;;;15.43;3.80;;;27.10;58.50;;;;;;5050734;28;20041;-77
2023/10/13 11:38:14;;;;;;;13.25;3.95;;;26.80;60.60;;;;;;5042520;28;20029;-78
2023/10/13 11:41:14;;;;;;;16.52;4.35;;;26.40;60.30;;;;;;5050007;28;20037;-74
2023/10/13 11:43:36;;;;;;;18.10;4.00;;;26.40;61.80;;;;;;5046518;28;20041;-74
2023/10/13 11:48:37;;;;;;;9.73;4.05;;;26.40;59.80;;;;;;5048939;28;20124;-72
2023/10/13 11:51:07;;;;;;;12.18;3.78;;;26.30;60.40;;;;;;5044645;28;20029;-74
2023/10/13 11:53:36;;;;;;;14.35;3.92;;;26.30;63.10;;;;;;5049272;28;20047;-76
2023/10/13 11:56:09;;;;;;;11.10;3.55;;;26.30;59.80;;;;;;5037390;28;20103;-76
2023/10/13 11:58:39;;;;;;;11.27;3.92;;;26.00;59.90;;;;;;5039766;28;20685;-75
2023/10/13 12:11:42;;;;;;;9.55;3.63;;;27.00;61.60;;;;;;5029855;28;20045;-74
2023/10/13 12:14:16;;;;;;;11.85;3.50;;;27.40;62.20;;;;;;5046023;28;20033;-73
2023/10/13 12:16:51;;;;;;;9.88;3.92;;;27.60;62.30;;;;;;5048101;28;20025;-74
2023/10/13 12:19:23;;;;;;;11.73;3.90;;;27.80;61.10;;;;;;5049809;28;20120;-74
2023/10/13 12:21:54;;;;;;;11.45;3.80;;;27.70;58.00;;;;;;5049487;28;20044;-78
2023/10/13 12:24:39;;;;;;;10.48;4.78;;;27.70;59.20;;;;;;5049646;28;20045;-73
2023/10/13 12:27:23;;;;;;;14.73;3.97;;;27.60;59.60;;;;;;5049750;28;20020;-74
2023/10/13 12:29:52;;;;;;;18.20;4.20;;;27.80;60.40;;;;;;5048993;28;20060;-74
2023/10/13 12:32:24;;;;;;;10.10;3.83;;;28.00;62.00;;;;;;5050220;28;20048;-72
2023/10/13 12:37:38;;;;;;;12.30;3.85;;;27.80;59.40;;;;;;5048174;28;20032;-74
2023/10/13 12:51:19;;;;;;;11.60;4.25;;;27.70;59.10;;;;;;5048249;28;20273;-75
2023/10/13 12:53:49;;;;;;;11.65;3.78;;;27.80;58.90;;;;;;5046829;28;20033;-73
2023/10/13 12:56:15;;;;;;;17.40;4.60;;;27.90;60.50;;;;;;5048772;28;20072;-76
2023/10/13 12:58:42;;;;;;;15.68;3.97;;;28.10;58.50;;;;;;5048568;28;20044;-71
2023/10/13 13:01:08;;;;;;;8.52;4.10;;;28.10;58.20;;;;;;5048284;28;20113;-73
2023/10/13 13:03:34;;;;;;;14.73;3.78;;;28.00;59.70;;;;;;5048323;28;20444;-74
2023/10/13 13:06:07;;;;;;;19.50;4.10;;;28.20;60.50;;;;;;5047341;28;20137;-73
2023/10/13 13:08:35;;;;;;;12.73;4.13;;;28.40;59.00;;;;;;5048931;28;20546;-75
2023/10/13 13:11:01;;;;;;;13.70;4.20;;;28.50;61.20;;;;;;5048734;28;20024;-74
2023/10/13 13:13:27;;;;;;;10.02;3.65;;;28.40;58.90;;;;;;5048297;28;20025;-72
2023/10/13 13:15:53;;;;;;;15.73;3.92;;;28.60;59.80;;;;;;5026766;28;20043;-79
2023/10/13 13:18:19;;;;;;;10.18;3.60;;;28.50;57.50;;;;;;5027900;28;20048;-73
2023/10/13 13:20:54;;;;;;;12.38;3.92;;;28.30;57.20;;;;;;5030012;28;20029;-77
2023/10/13 13:23:21;;;;;;;10.48;3.63;;;28.10;56.90;;;;;;5044371;28;20059;-75
2023/10/13 13:25:47;;;;;;;10.48;3.35;;;28.10;56.90;;;;;;5042871;28;20036;-79
2023/10/13 13:28:15;;;;;;;11.25;3.88;;;28.00;59.70;;;;;;5039900;28;20453;-77
2023/10/13 13:30:44;;;;;;;10.85;4.03;;;28.10;58.80;;;;;;5042195;28;20557;-80
2023/10/13 13:33:10;;;;;;;10.93;3.45;;;28.20;60.50;;;;;;5050144;28;20029;-74
2023/10/13 13:35:42;;;;;;;15.27;4.07;;;28.10;59.40;;;;;;5042040;28;20042;-73
2023/10/13 13:38:27;;;;;;;10.50;4.18;;;28.10;62.50;;;;;;5045059;28;20037;-72
2023/10/13 13:40:54;;;;;;;12.48;4.47;;;28.20;61.90;;;;;;5047774;28;20397;-72
2023/10/13 13:44:21;;;;;;;15.38;4.03;;;28.10;59.30;;;;;;5048656;28;20124;-75
2023/10/13 13:46:17;;;;;;;13.65;5.25;;;28.10;59.80;;;;;;5031013;28;20041;-78
2023/10/13 13:48:42;;;;;;;12.07;4.50;;;28.20;61.10;;;;;;5048145;28;20128;-74
2023/10/13 13:51:15;;;;;;;8.40;3.85;;;28.20;61.30;;;;;;5047070;28;20115;-75
2023/10/13 13:53:50;;;;;;;12.52;3.50;;;28.20;60.30;;;;;;5048717;28;20037;-75
2023/10/13 13:56:16;;;;;;;14.43;5.65;;;28.40;62.10;;;;;;5048259;28;20039;-75
2023/10/13 13:58:45;;;;;;;10.80;3.40;;;28.30;62.10;;;;;;5048327;28;20044;-73
2023/10/13 14:01:15;;;;;;;21.05;5.15;;;28.30;62.10;;;;;;5048615;28;20458;-74
2023/10/13 14:03:46;;;;;;;10.43;6.90;;;28.10;63.10;;;;;;5047360;28;20116;-75
2023/10/13 14:06:17;;;;;;;18.30;3.95;;;28.30;63.40;;;;;;5046832;28;20049;-75
2023/10/13 14:08:44;;;;;;;13.32;3.70;;;28.20;67.00;;;;;;5048256;28;20120;-73
2023/10/13 14:11:13;;;;;;;18.70;3.90;;;28.30;63.80;;;;;;5046148;28;20112;-75
2023/10/13 14:13:55;;;;;;;14.73;4.00;;;28.30;67.50;;;;;;5046004;28;20033;-73
2023/10/13 14:16:23;;;;;;;14.10;4.03;;;28.30;67.00;;;;;;5045640;28;20029;-76
2023/10/13 14:18:50;;;;;;;11.57;3.72;;;28.10;67.30;;;;;;5041903;28;20037;-75
2023/10/13 14:21:16;;;;;;;15.52;3.78;;;28.10;68.10;;;;;;5048309;28;20079;-75
2023/10/13 14:23:46;;;;;;;10.52;3.90;;;28.10;68.80;;;;;;5047300;28;20448;-77
2023/10/13 14:26:20;;;;;;;13.27;3.88;;;28.20;71.10;;;;;;5047847;28;20485;-75
2023/10/13 14:29:00;;;;;;;11.35;3.60;;;28.20;71.30;;;;;;5045781;28;20428;-71
2023/10/13 14:31:26;;;;;;;;;;;28.10;64.50;;;;;;5048954;28;20033;-75
2023/10/13 14:33:53;;;;;;;8.95;3.97;;;28.10;53.20;;;;;;5047243;28;19916;-74
2023/10/13 14:36:19;;;;;;;8.60;4.18;;;28.10;55.80;;;;;;5048142;28;20033;-75
2023/10/13 14:38:49;;;;;;;11.07;3.58;;;28.10;54.00;;;;;;5040586;28;20037;-74
2023/10/13 14:41:18;;;;;;;15.95;4.15;;;28.00;54.70;;;;;;5033793;28;20148;-76
2023/10/13 14:43:48;;;;;;;11.40;4.00;;;28.00;54.50;;;;;;5049079;28;20556;-73
2023/10/13 14:46:23;;;;;;;10.55;3.72;;;27.90;56.20;;;;;;5051784;28;20112;-74
2023/10/13 14:48:52;;;;;;;5.63;3.33;;;27.90;55.70;;;;;;5051317;28;20091;-73
2023/10/13 14:51:18;;;;;;;14.38;4.10;;;28.00;56.00;;;;;;5044031;28;20334;-73
2023/10/13 14:53:45;;;;;;;14.02;3.85;;;27.90;54.50;;;;;;5051437;28;20033;-73
2023/10/13 14:56:15;;;;;;;10.23;3.78;;;27.90;54.10;;;;;;5051320;28;20086;-77
2023/10/13 14:58:44;;;;;;;12.32;4.03;;;28.00;56.10;;;;;;5050621;28;20417;-76
2023/10/13 15:01:16;;;;;;;10.60;4.00;;;28.00;55.30;;;;;;5048585;28;20038;-76
2023/10/13 15:03:46;;;;;;;13.70;4.10;;;28.00;56.20;;;;;;5051763;28;20021;-75
2023/10/13 15:06:18;;;;;;;11.45;3.92;;;28.00;57.30;;;;;;5049779;28;20060;-75
2023/10/13 15:08:48;;;;;;;18.17;4.10;;;28.10;55.40;;;;;;5046752;28;20063;-76
2023/10/13 15:11:14;;;;;;;13.07;3.63;;;28.10;56.10;;;;;;5050826;28;20512;-74
2023/10/13 15:13:43;;;;;;;12.05;4.10;;;28.20;55.10;;;;;;5050806;28;20099;-73
2023/10/13 15:16:23;;;;;;;13.73;3.65;;;28.10;57.10;;;;;;5050338;28;20607;-75
2023/10/13 15:18:51;;;;;;;20.33;3.80;;;28.10;56.80;;;;;;5050699;28;20465;-76
2023/10/13 15:21:28;;;;;;;11.10;3.75;;;28.20;57.80;;;;;;5050277;28;20036;-78
2023/10/13 15:23:59;;;;;;;15.00;4.20;;;28.30;57.30;;;;;;5049839;28;20496;-79
2023/10/13 15:26:25;;;;;;;10.65;3.90;;;28.30;57.30;;;;;;5051246;28;20750;-78
2023/10/13 15:28:55;;;;;;;9.02;4.05;;;28.20;55.80;;;;;;5050098;28;20037;-75
2023/10/13 15:34:01;;;;;;;11.60;3.67;;;27.80;57.60;;;;;;5050417;28;19913;-79
2023/10/13 15:36:26;;;;;;;10.85;3.85;;;27.90;58.20;;;;;;5050319;28;20033;-78
2023/10/13 15:38:53;;;;;;;13.13;4.15;;;27.90;57.80;;;;;;5049888;28;20043;-80
2023/10/13 15:41:26;;;;;;;10.82;3.80;;;28.00;57.70;;;;;;5050524;28;20025;-81
2023/10/13 15:43:54;;;;;;;14.45;4.20;;;28.00;58.50;;;;;;5049238;28;20140;-75
2023/10/13 15:46:20;;;;;;;18.35;3.85;;;27.90;57.50;;;;;;5049471;28;20358;-79
2023/10/13 15:48:47;;;;;;;10.70;3.85;;;27.90;59.00;;;;;;5050024;28;20484;-80
2023/10/13 15:51:13;;;;;;;9.73;3.90;;;27.80;58.70;;;;;;5048526;28;20044;-78
2023/10/13 15:53:39;;;;;;;16.60;4.18;;;27.70;58.40;;;;;;5039019;28;20112;-78
2023/10/13 15:56:14;;;;;;;9.75;4.10;;;27.30;61.70;;;;;;5049641;28;20033;-79
2023/10/13 15:58:44;;;;;;;8.77;3.75;;;27.00;62.30;;;;;;5049591;28;20033;-75
2023/10/13 16:01:13;;;;;;;12.90;3.83;;;26.60;63.50;;;;;;5049241;28;20029;-78
2023/10/13 16:03:40;;;;;;;9.23;3.60;;;26.20;64.60;;;;;;5038991;28;20040;-77
2023/10/13 16:06:09;;;;;;;13.15;3.97;;;25.70;65.40;;;;;;5033638;28;20061;-77
2023/10/13 16:08:37;;;;;;;7.78;4.00;;;25.40;66.00;;;;;;5045351;28;20033;-77
2023/10/13 16:11:13;;;;;;;10.40;4.05;;;25.00;67.60;;;;;;5049856;28;20031;-77